createdAt,value
2023-11-24T00:01:35.841Z,101271.88
2023-11-24T00:04:07.895Z,101278.19
2023-11-24T00:06:40.008Z,101274.84
2023-11-24T00:09:12.096Z,101268.50
2023-11-24T00:11:45.009Z,101271.00
2023-11-24T00:14:17.193Z,101265.59
2023-11-24T00:16:49.338Z,101287.63
2023-11-24T00:19:21.333Z,101278.78
2023-11-24T00:21:53.383Z,101249.88
2023-11-24T00:24:26.842Z,101270.75
2023-11-24T00:26:59.869Z,101261.06
2023-11-24T00:29:32.744Z,101275.97
2023-11-24T00:32:05.332Z,101280.97
2023-11-24T00:34:39.452Z,101281.94
2023-11-24T00:37:11.711Z,101294.31
2023-11-24T00:39:45.503Z,101287.13
2023-11-24T00:42:18.309Z,101295.88
2023-11-24T00:44:51.228Z,101294.97
2023-11-24T00:47:23.299Z,101264.00
2023-11-24T00:49:55.852Z,101264.19
2023-11-24T00:52:27.858Z,101239.03
2023-11-24T00:54:59.878Z,101284.34
2023-11-24T00:57:31.995Z,101303.50
2023-11-24T01:00:08.248Z,101319.34
2023-11-24T01:02:40.844Z,101276.28
2023-11-24T01:05:12.839Z,101306.34
2023-11-24T01:07:44.887Z,101321.06
2023-11-24T01:10:17.014Z,101311.22
2023-11-24T01:12:49.204Z,101305.84
2023-11-24T01:15:22.852Z,101273.53
2023-11-24T01:17:56.031Z,101264.50
2023-11-24T01:20:28.151Z,101295.75
2023-11-24T01:23:00.207Z,101299.22
2023-11-24T01:25:32.961Z,101299.84
2023-11-24T01:28:05.271Z,101284.97
2023-11-24T01:30:39.176Z,101285.09
2023-11-24T01:33:11.397Z,101285.09
2023-11-24T01:35:43.531Z,101271.97
2023-11-24T01:38:15.496Z,101272.81
2023-11-24T01:40:47.991Z,101261.91
2023-11-24T01:43:20.033Z,101226.03
2023-11-24T01:45:52.427Z,101270.66
2023-11-24T01:48:25.411Z,101266.91
2023-11-24T01:50:57.544Z,101282.63
2023-11-24T01:53:30.904Z,101276.19
2023-11-24T01:56:03.684Z,101283.31
2023-11-24T01:58:36.053Z,101287.47
2023-11-24T02:01:08.134Z,101255.06
2023-11-24T02:03:40.548Z,101275.88
2023-11-24T02:06:13.540Z,101271.38
2023-11-24T02:08:47.283Z,101270.38
2023-11-24T02:11:19.302Z,101242.25
2023-11-24T02:13:52.027Z,101262.19
2023-11-24T02:16:24.273Z,101280.03
2023-11-24T02:18:56.416Z,101273.88
2023-11-24T02:21:28.587Z,101274.81
2023-11-24T02:24:00.811Z,101266.03
2023-11-24T02:26:32.956Z,101268.63
2023-11-24T02:29:05.030Z,101274.78
2023-11-24T02:31:37.658Z,101273.09
2023-11-24T02:34:10.082Z,101275.50
2023-11-24T02:36:43.842Z,101261.31
2023-11-24T02:39:16.137Z,101264.00
2023-11-24T02:41:48.116Z,101262.19
2023-11-24T02:44:20.260Z,101247.44
2023-11-24T02:46:52.735Z,101269.72
2023-11-24T02:49:24.837Z,101276.47
2023-11-24T02:51:56.893Z,101272.00
2023-11-24T02:54:30.083Z,101245.00
2023-11-24T02:57:02.188Z,101263.22
2023-11-24T02:59:34.244Z,101212.59
2023-11-24T03:02:07.201Z,101210.69
2023-11-24T03:04:39.553Z,101220.94
2023-11-24T03:07:11.883Z,101179.84
2023-11-24T03:09:43.934Z,101171.88
2023-11-24T03:12:17.521Z,101194.28
2023-11-24T03:14:49.593Z,101146.88
2023-11-24T03:17:24.603Z,101169.59
2023-11-24T03:19:56.705Z,101172.91
2023-11-24T03:22:28.710Z,101161.50
2023-11-24T03:25:00.765Z,101170.31
2023-11-24T03:27:33.060Z,101138.19
2023-11-24T03:30:06.226Z,101159.66
2023-11-24T03:32:39.042Z,101134.19
2023-11-24T03:35:11.239Z,101160.66
2023-11-24T03:37:43.847Z,101173.22
2023-11-24T03:40:17.607Z,101176.69
2023-11-24T03:42:50.049Z,101173.88
2023-11-24T03:45:22.133Z,101176.13
2023-11-24T03:47:54.323Z,101171.66
2023-11-24T03:50:26.841Z,101149.84
2023-11-24T03:52:59.244Z,101175.84
2023-11-24T03:55:31.214Z,101167.00
2023-11-24T03:58:03.494Z,101169.63
2023-11-24T04:00:35.649Z,101174.69
2023-11-24T04:03:07.829Z,101178.06
2023-11-24T04:05:39.884Z,101164.97
2023-11-24T04:08:12.161Z,101183.13
2023-11-24T04:10:44.333Z,101143.59
2023-11-24T04:13:16.529Z,101171.16
2023-11-24T04:15:48.631Z,101170.09
2023-11-24T04:18:20.719Z,101172.66
2023-11-24T04:20:53.260Z,101168.06
2023-11-24T04:23:26.219Z,101158.28
2023-11-24T04:25:58.488Z,101165.47
2023-11-24T04:28:30.554Z,101160.31
2023-11-24T04:31:02.680Z,101161.13
2023-11-24T04:33:34.832Z,101156.78
2023-11-24T04:36:08.646Z,101153.22
2023-11-24T04:38:40.654Z,101115.50
2023-11-24T04:41:13.744Z,101144.22
2023-11-24T04:43:45.740Z,101133.66
2023-11-24T04:46:17.818Z,101128.22
2023-11-24T04:48:50.155Z,101126.28
2023-11-24T04:51:22.133Z,101125.38
2023-11-24T04:53:54.126Z,101101.94
2023-11-24T04:56:29.106Z,101094.84
2023-11-24T04:59:01.242Z,101110.25
2023-11-24T05:01:33.679Z,101109.34
2023-11-24T05:04:06.540Z,101096.38
2023-11-24T05:06:39.293Z,101108.31
2023-11-24T05:09:12.569Z,101090.53
2023-11-24T05:11:44.645Z,101122.72
2023-11-24T05:14:17.152Z,101111.38
2023-11-24T05:16:49.396Z,101119.19
2023-11-24T05:19:21.368Z,101119.09
2023-11-24T05:21:53.615Z,101103.31
2023-11-24T05:24:25.669Z,101115.94
2023-11-24T05:26:57.963Z,101112.38
2023-11-24T05:29:32.118Z,101107.00
2023-11-24T05:32:04.804Z,101092.09
2023-11-24T05:34:36.837Z,101103.66
2023-11-24T05:37:09.094Z,101102.19
2023-11-24T05:39:41.199Z,101094.38
2023-11-24T05:42:13.507Z,101069.03
2023-11-24T05:44:45.581Z,101096.25
2023-11-24T05:47:17.591Z,101098.19
2023-11-24T05:49:52.112Z,101094.59
2023-11-24T05:52:24.903Z,101056.97
2023-11-24T05:54:59.684Z,101087.72
2023-11-24T05:57:34.441Z,101084.66
2023-11-24T06:00:10.019Z,101067.47
2023-11-24T06:02:42.469Z,101098.44
2023-11-24T06:05:16.801Z,101094.84
2023-11-24T06:07:52.403Z,101090.56
2023-11-24T06:10:26.209Z,101074.84
2023-11-24T06:12:58.733Z,101040.09
2023-11-24T06:15:30.984Z,101085.66
2023-11-24T06:18:03.590Z,101052.66
2023-11-24T06:20:35.750Z,101076.13
2023-11-24T06:23:09.017Z,101080.41
2023-11-24T06:25:40.996Z,101084.38
2023-11-24T06:28:13.207Z,101098.38
2023-11-24T06:30:45.227Z,101094.84
2023-11-24T06:33:17.551Z,101098.75
2023-11-24T06:35:50.486Z,101094.09
2023-11-24T06:38:23.764Z,101091.28
2023-11-24T06:40:55.804Z,101085.00
2023-11-24T06:43:27.827Z,101049.16
2023-11-24T06:46:01.733Z,101070.94
2023-11-24T06:48:34.014Z,101068.41
2023-11-24T06:51:06.874Z,101077.16
2023-11-24T06:53:39.104Z,101049.44
2023-11-24T06:56:11.223Z,101086.94
2023-11-24T06:58:43.252Z,101091.06
2023-11-24T07:01:27.495Z,101102.66
2023-11-24T07:04:01.006Z,101091.56
2023-11-24T07:06:33.193Z,101094.88
2023-11-24T07:09:06.272Z,101080.59
2023-11-24T07:11:39.588Z,101094.81
2023-11-24T07:14:12.566Z,101096.38
2023-11-24T07:16:44.735Z,101092.00
2023-11-24T07:19:19.363Z,101063.59
2023-11-24T07:21:51.521Z,101082.59
2023-11-24T07:24:24.034Z,101076.53
2023-11-24T07:26:56.204Z,101040.06
2023-11-24T07:29:29.002Z,101063.44
2023-11-24T07:32:04.895Z,101057.38
2023-11-24T07:34:37.472Z,101062.53
2023-11-24T07:37:09.936Z,101063.53
2023-11-24T07:39:43.503Z,101069.56
2023-11-24T07:42:16.926Z,101039.09
2023-11-24T07:44:49.859Z,101066.97
2023-11-24T07:47:21.917Z,101062.53
2023-11-24T07:49:54.164Z,101066.06
2023-11-24T07:52:27.408Z,101063.56
2023-11-24T07:54:59.664Z,101076.75
2023-11-24T07:57:31.671Z,101081.00
2023-11-24T08:00:05.610Z,101083.19
2023-11-24T08:02:38.949Z,101067.91
2023-11-24T08:05:11.022Z,101096.06
2023-11-24T08:07:45.580Z,101097.34
2023-11-24T08:10:18.824Z,101093.84
2023-11-24T08:12:51.066Z,101095.63
2023-11-24T08:15:23.477Z,101090.25
2023-11-24T08:17:55.635Z,101062.75
2023-11-24T08:20:27.858Z,101035.13
2023-11-24T08:22:59.888Z,101067.25
2023-11-24T08:25:32.130Z,101068.00
2023-11-24T08:28:06.004Z,101025.53
2023-11-24T08:30:41.225Z,101017.69
2023-11-24T08:33:13.343Z,101038.69
2023-11-24T08:35:45.391Z,101039.75
2023-11-24T08:38:17.759Z,101037.19
2023-11-24T08:40:50.199Z,101041.38
2023-11-24T08:43:24.141Z,101054.38
2023-11-24T08:45:56.362Z,101076.88
2023-11-24T08:48:28.463Z,101080.19
2023-11-24T08:51:01.356Z,101093.84
2023-11-24T08:53:35.132Z,101061.03
2023-11-24T08:56:07.727Z,101053.47
2023-11-24T08:58:40.123Z,101011.34
2023-11-24T09:01:15.254Z,101039.88
2023-11-24T09:03:47.564Z,101010.38
2023-11-24T09:06:27.584Z,101000.81
2023-11-24T09:08:59.807Z,101023.47
2023-11-24T09:11:31.891Z,101021.94
2023-11-24T09:14:06.023Z,101016.59
2023-11-24T09:16:39.310Z,101015.91
2023-11-24T09:19:12.972Z,100988.94
2023-11-24T09:21:45.133Z,100988.84
2023-11-24T09:24:19.276Z,101025.38
2023-11-24T09:26:52.099Z,100995.75
2023-11-24T09:29:24.680Z,101021.94
2023-11-24T09:31:59.368Z,101021.94
2023-11-24T09:34:32.349Z,101023.59
2023-11-24T09:37:04.766Z,100993.84
2023-11-24T09:39:36.883Z,101037.50
2023-11-24T09:42:16.403Z,101012.25
2023-11-24T09:44:56.113Z,101000.75
2023-11-24T09:47:28.270Z,101028.53
2023-11-24T09:50:02.596Z,101015.53
2023-11-24T09:52:35.252Z,101012.03
2023-11-24T09:55:08.563Z,101015.84
2023-11-24T09:57:41.262Z,101011.34
2023-11-24T10:00:16.639Z,101019.72
2023-11-24T10:02:50.966Z,101025.53
2023-11-24T10:05:23.357Z,101031.03
2023-11-24T10:07:56.405Z,101018.66
2023-11-24T10:10:30.100Z,101025.66
2023-11-24T10:13:04.043Z,101026.84
2023-11-24T10:15:37.870Z,101022.53
2023-11-24T10:18:10.215Z,101026.13
2023-11-24T10:20:42.848Z,101019.09
2023-11-24T10:23:17.260Z,101024.59
2023-11-24T10:25:49.296Z,101021.31
2023-11-24T10:28:21.429Z,101014.28
2023-11-24T10:30:58.858Z,100955.28
2023-11-24T10:33:35.395Z,101007.09
2023-11-24T10:36:10.146Z,101023.69
2023-11-24T10:38:43.502Z,101019.09
2023-11-24T10:41:20.956Z,101000.16
2023-11-24T10:43:56.333Z,101001.97
2023-11-24T10:46:38.834Z,100996.78
2023-11-24T10:49:49.364Z,100991.47
2023-11-24T10:52:34.414Z,100986.91
2023-11-24T10:55:16.775Z,100955.19
2023-11-24T10:57:49.752Z,100953.53
2023-11-24T11:00:23.487Z,100953.06
2023-11-24T11:02:56.856Z,100940.41
2023-11-24T11:05:47.325Z,100931.75
2023-11-24T11:08:32.801Z,100934.88
2023-11-24T11:11:27.226Z,100920.75
2023-11-24T11:14:00.956Z,100897.53
2023-11-24T11:16:34.263Z,100930.22
2023-11-24T11:19:32.972Z,100933.16
2023-11-24T11:22:08.420Z,100926.84
2023-11-24T11:24:40.720Z,100933.81
2023-11-24T11:27:27.824Z,100920.56
2023-11-24T11:29:59.981Z,100935.41
2023-11-24T11:32:32.636Z,100935.00
2023-11-24T11:35:05.221Z,100944.53
2023-11-24T11:37:38.102Z,100925.25
2023-11-24T11:40:16.726Z,100934.34
2023-11-24T11:43:07.003Z,100897.31
2023-11-24T11:45:49.648Z,100916.56
2023-11-24T11:48:21.822Z,100921.56
2023-11-24T11:51:01.942Z,100920.44
2023-11-24T11:53:35.285Z,100887.91
2023-11-24T11:56:11.968Z,100933.19
2023-11-24T11:58:44.023Z,100898.28
2023-11-24T12:01:16.622Z,100917.16
2023-11-24T12:03:48.905Z,100920.81
2023-11-24T12:06:22.155Z,100920.72
2023-11-24T12:08:55.340Z,100887.41
2023-11-24T12:11:28.021Z,100908.50
2023-11-24T12:14:01.484Z,100885.31
2023-11-24T12:16:34.805Z,100888.31
2023-11-24T12:19:09.126Z,100917.19
2023-11-24T12:21:47.496Z,100902.44
2023-11-24T12:24:23.833Z,100865.94
2023-11-24T12:26:59.786Z,100884.47
2023-11-24T12:29:31.957Z,100894.63
2023-11-24T12:32:07.515Z,100887.09
2023-11-24T12:34:46.498Z,100884.22
2023-11-24T12:37:18.607Z,100877.53
2023-11-24T12:39:50.797Z,100871.59
2023-11-24T12:42:23.867Z,100835.97
2023-11-24T12:44:56.974Z,100872.13
2023-11-24T12:50:16.738Z,100855.56
2023-11-24T12:52:49.009Z,100863.84
2023-11-24T12:55:22.974Z,100871.81
2023-11-24T12:57:55.219Z,100859.66
2023-11-24T13:00:28.494Z,100861.88
2023-11-24T13:03:00.613Z,100858.94
2023-11-24T13:05:35.212Z,100854.06
2023-11-24T13:08:08.168Z,100882.69
2023-11-24T13:10:41.892Z,100871.16
2023-11-24T13:13:15.747Z,100838.53
2023-11-24T13:15:48.158Z,100867.66
2023-11-24T13:18:20.389Z,100861.25
2023-11-24T13:20:52.492Z,100833.25
2023-11-24T13:23:24.565Z,100849.41
2023-11-24T13:25:56.632Z,100831.31
2023-11-24T13:28:30.975Z,100840.16
2023-11-24T13:31:03.130Z,100849.06
2023-11-24T13:33:35.300Z,100845.38
2023-11-24T13:36:07.629Z,100844.81
2023-11-24T13:38:41.011Z,100843.19
2023-11-24T13:41:13.778Z,100839.97
2023-11-24T13:43:45.825Z,100822.56
2023-11-24T13:46:18.284Z,100818.44
2023-11-24T13:48:50.655Z,100828.19
2023-11-24T13:51:25.580Z,100808.25
2023-11-24T13:53:57.851Z,100804.13
2023-11-24T13:56:30.740Z,100786.25
2023-11-24T13:59:03.645Z,100816.44
2023-11-24T14:01:35.877Z,100813.25
2023-11-24T14:04:13.030Z,100812.72
2023-11-24T14:06:50.005Z,100822.16
2023-11-24T14:09:30.482Z,100837.19
2023-11-24T14:12:04.839Z,100847.25
2023-11-24T14:14:37.807Z,100845.38
2023-11-24T14:17:09.971Z,100824.44
2023-11-24T14:19:42.155Z,100855.91
2023-11-24T14:22:16.353Z,100822.81
2023-11-24T14:24:49.748Z,100849.59
2023-11-24T14:27:21.938Z,100840.72
2023-11-24T14:29:53.962Z,100838.78
2023-11-24T14:32:26.017Z,100838.31
2023-11-24T14:34:58.120Z,100837.47
2023-11-24T14:37:30.311Z,100837.47
2023-11-24T14:40:02.858Z,100839.38
2023-11-24T14:42:35.176Z,100844.59
2023-11-24T14:45:09.789Z,100845.72
2023-11-24T14:47:41.840Z,100833.75
2023-11-24T14:50:14.655Z,100839.13
2023-11-24T14:52:46.705Z,100832.22
2023-11-24T14:55:22.858Z,100848.19
2023-11-24T14:57:56.961Z,100851.09
2023-11-24T15:00:32.196Z,100874.69
2023-11-24T15:03:15.700Z,100832.63
2023-11-24T15:05:54.134Z,100832.91
2023-11-24T15:08:28.210Z,100870.81
2023-11-24T15:11:05.817Z,100859.25
2023-11-24T15:13:38.051Z,100864.28
2023-11-24T15:16:19.979Z,100865.72
2023-11-24T15:18:52.314Z,100860.41
2023-11-24T15:21:31.721Z,100862.22
2023-11-24T15:24:05.688Z,100864.53
2023-11-24T15:26:38.515Z,100856.59
2023-11-24T15:29:12.106Z,100853.09
2023-11-24T15:31:47.860Z,100843.31
2023-11-24T15:34:20.162Z,100801.66
2023-11-24T15:36:52.326Z,100862.31
2023-11-24T15:39:39.957Z,100851.53
2023-11-24T15:42:16.209Z,100867.44
2023-11-24T15:44:49.629Z,100860.50
2023-11-24T15:47:21.763Z,100829.19
2023-11-24T15:49:54.505Z,100853.34
2023-11-24T15:52:26.556Z,100860.69
2023-11-24T15:54:58.995Z,100865.88
2023-11-24T15:57:30.995Z,100860.50
2023-11-24T16:00:11.972Z,100870.81
2023-11-24T16:02:44.589Z,100865.50
2023-11-24T16:05:16.896Z,100869.78
2023-11-24T16:07:55.118Z,100831.56
2023-11-24T16:10:31.040Z,100838.34
2023-11-24T16:13:05.198Z,100834.63
2023-11-24T16:15:43.430Z,100813.97
2023-11-24T16:18:16.767Z,100842.47
2023-11-24T16:20:50.212Z,100840.53
2023-11-24T16:23:22.230Z,100863.22
2023-11-24T16:25:54.227Z,100877.38
2023-11-24T16:28:28.206Z,100860.09
2023-11-24T16:31:00.359Z,100890.22
2023-11-24T16:33:34.323Z,100872.91
2023-11-24T16:36:06.715Z,100856.94
2023-11-24T16:38:42.477Z,100876.66
2023-11-24T16:41:15.782Z,100893.78
2023-11-24T16:43:47.845Z,100898.13
2023-11-24T16:46:22.404Z,100892.03
2023-11-24T16:48:54.521Z,100892.03
2023-11-24T16:51:26.484Z,100882.16
2023-11-24T16:53:58.990Z,100886.31
2023-11-24T16:56:31.123Z,100888.69
2023-11-24T16:59:03.173Z,100881.72
2023-11-24T17:01:35.231Z,100880.06
2023-11-24T17:04:08.730Z,100896.72
2023-11-24T17:06:41.058Z,100896.72
2023-11-24T17:09:16.668Z,100900.44
2023-11-24T17:11:48.974Z,100870.28
2023-11-24T17:14:21.566Z,100899.03
2023-11-24T17:16:54.173Z,100898.13
2023-11-24T17:19:26.330Z,100886.72
2023-11-24T17:21:58.502Z,100889.19
2023-11-24T17:24:30.691Z,100885.41
2023-11-24T17:27:02.754Z,100881.19
2023-11-24T17:29:34.990Z,100881.34
2023-11-24T17:32:07.548Z,100887.22
2023-11-24T17:34:40.517Z,100883.88
2023-11-24T17:37:12.658Z,100834.56
2023-11-24T17:39:44.742Z,100826.38
2023-11-24T17:42:17.303Z,100851.50
2023-11-24T17:44:49.358Z,100870.81
2023-11-24T17:47:21.370Z,100866.34
2023-11-24T17:49:55.500Z,100880.19
2023-11-24T17:52:28.428Z,100890.59
2023-11-24T17:55:02.351Z,100858.19
2023-11-24T17:57:34.481Z,100852.69
2023-11-24T18:00:12.816Z,100876.97
2023-11-24T18:02:44.988Z,100849.25
2023-11-24T18:05:18.954Z,100821.22
2023-11-24T18:07:51.130Z,100843.00
2023-11-24T18:10:23.381Z,100868.13
2023-11-24T18:12:56.089Z,100883.00
2023-11-24T18:15:28.463Z,100891.63
2023-11-24T18:18:02.578Z,100923.53
2023-11-24T18:20:37.961Z,100875.50
2023-11-24T18:23:09.994Z,100876.31
2023-11-24T18:25:45.176Z,100866.72
2023-11-24T18:28:17.557Z,100861.34
2023-11-24T18:30:49.861Z,100847.59
2023-11-24T18:33:24.057Z,100868.34
2023-11-24T18:35:58.323Z,100868.19
2023-11-24T18:38:30.613Z,100865.50
2023-11-24T18:41:02.713Z,100866.22
2023-11-24T18:43:39.816Z,100869.59
2023-11-24T18:46:12.872Z,100868.94
2023-11-24T18:48:44.989Z,100876.00
2023-11-24T18:51:17.779Z,100864.31
2023-11-24T18:53:50.039Z,100871.78
2023-11-24T18:56:23.511Z,100868.34
2023-11-24T18:58:56.015Z,100836.28
2023-11-24T19:01:28.192Z,100869.25
2023-11-24T19:04:00.497Z,100820.47
2023-11-24T19:06:33.161Z,100857.00
2023-11-24T19:09:05.867Z,100858.88
2023-11-24T19:11:38.066Z,100866.72
2023-11-24T19:14:10.669Z,100870.94
2023-11-24T19:16:47.219Z,100876.00
2023-11-24T19:19:19.508Z,100870.94
2023-11-24T19:21:51.753Z,100874.56
2023-11-24T19:24:24.347Z,100873.72
2023-11-24T19:26:56.414Z,100864.31
2023-11-24T19:29:28.896Z,100872.25
2023-11-24T19:32:01.033Z,100836.88
2023-11-24T19:34:33.181Z,100846.41
2023-11-24T19:37:09.727Z,100874.19
2023-11-24T19:39:43.321Z,100850.91
2023-11-24T19:42:17.267Z,100875.97
2023-11-24T19:44:50.481Z,100874.34
2023-11-24T19:47:22.474Z,100883.13
2023-11-24T19:49:54.592Z,100876.16
2023-11-24T19:52:27.341Z,100842.25
2023-11-24T19:54:59.404Z,100877.00
2023-11-24T19:57:32.913Z,100874.25
2023-11-24T20:00:09.984Z,100853.69
2023-11-24T20:02:42.164Z,100885.94
2023-11-24T20:05:14.255Z,100886.84
2023-11-24T20:07:46.504Z,100882.50
2023-11-24T20:10:18.670Z,100899.88
2023-11-24T20:12:51.566Z,100898.78
2023-11-24T20:15:25.367Z,100852.56
2023-11-24T20:18:00.722Z,100884.75
2023-11-24T20:20:34.903Z,100917.72
2023-11-24T20:23:09.760Z,100909.69
2023-11-24T20:25:41.768Z,100907.13
2023-11-24T20:28:14.310Z,100908.94
2023-11-24T20:30:46.559Z,100882.94
2023-11-24T20:33:19.275Z,100908.19
2023-11-24T20:35:51.342Z,100906.06
2023-11-24T20:38:23.792Z,100889.81
2023-11-24T20:40:56.232Z,100898.59
2023-11-24T20:43:29.123Z,100929.97
2023-11-24T20:46:01.213Z,100928.09
2023-11-24T20:48:33.307Z,100893.22
2023-11-24T20:51:05.567Z,100930.72
2023-11-24T20:53:40.308Z,100934.22
2023-11-24T20:56:12.580Z,100933.22
2023-11-24T20:58:44.720Z,100932.28
2023-11-24T21:01:16.789Z,100925.59
2023-11-24T21:03:48.910Z,100932.91
2023-11-24T21:06:21.028Z,100911.81
2023-11-24T21:09:01.350Z,100936.13
2023-11-24T21:11:33.826Z,100946.31
2023-11-24T21:14:05.995Z,100953.88
2023-11-24T21:16:39.005Z,100961.66
2023-11-24T21:19:11.021Z,100957.88
2023-11-24T21:21:44.633Z,100966.53
2023-11-24T21:24:16.581Z,100959.38
2023-11-24T21:26:48.632Z,100960.81
2023-11-24T21:29:20.717Z,100963.34
2023-11-24T21:31:53.059Z,100966.78
2023-11-24T21:34:25.149Z,100965.06
2023-11-24T21:36:57.358Z,100972.91
2023-11-24T21:39:29.428Z,100973.78
2023-11-24T21:42:01.444Z,100963.25
2023-11-24T21:44:33.450Z,100962.13
2023-11-24T21:47:06.047Z,100977.78
2023-11-24T21:49:39.218Z,100972.38
2023-11-24T21:52:11.570Z,100978.59
2023-11-24T21:54:45.511Z,100981.19
2023-11-24T21:57:18.842Z,100960.50
2023-11-24T21:59:51.192Z,100977.59
2023-11-24T22:02:26.903Z,100951.06
2023-11-24T22:04:59.101Z,100993.91
2023-11-24T22:07:34.798Z,101006.94
2023-11-24T22:10:08.213Z,101001.91
2023-11-24T22:12:40.404Z,101002.78
2023-11-24T22:15:13.462Z,101004.41
2023-11-24T22:17:47.386Z,101012.97
2023-11-24T22:20:20.451Z,101017.22
2023-11-24T22:22:53.258Z,101013.59
2023-11-24T22:25:25.546Z,100974.78
2023-11-24T22:27:57.753Z,101015.06
2023-11-24T22:30:29.861Z,101022.22
2023-11-24T22:33:02.953Z,101020.28
2023-11-24T22:35:34.981Z,101034.13
2023-11-24T22:38:07.397Z,101028.91
2023-11-24T22:40:40.480Z,101044.72
2023-11-24T22:43:12.576Z,101048.31
2023-11-24T22:45:44.743Z,101035.41
2023-11-24T22:48:16.865Z,101059.47
2023-11-24T22:50:49.007Z,101029.84
2023-11-24T22:53:20.995Z,101065.59
2023-11-24T22:55:53.149Z,101068.38
2023-11-24T22:58:25.541Z,101067.38
2023-11-24T23:01:00.798Z,101072.84
2023-11-24T23:03:32.943Z,101080.59
2023-11-24T23:06:05.233Z,101073.03
2023-11-24T23:08:37.865Z,101071.47
2023-11-24T23:11:16.073Z,101081.09
2023-11-24T23:13:52.248Z,101069.69
2023-11-24T23:16:34.325Z,101066.81
2023-11-24T23:19:06.720Z,101073.69
2023-11-24T23:21:41.700Z,101074.38
2023-11-24T23:24:15.487Z,101068.03
2023-11-24T23:26:47.601Z,101083.72
2023-11-24T23:29:19.727Z,101079.44
2023-11-24T23:31:51.929Z,101077.72
2023-11-24T23:34:24.073Z,101072.44
2023-11-24T23:36:56.249Z,101067.91
2023-11-24T23:39:28.784Z,101074.78
2023-11-24T23:42:00.827Z,101085.19
2023-11-24T23:44:33.097Z,101082.59
2023-11-24T23:47:06.678Z,101107.94
2023-11-24T23:49:40.388Z,101122.22
2023-11-24T23:52:12.418Z,101142.72
2023-11-24T23:54:44.485Z,101142.09
2023-11-24T23:57:16.455Z,101141.63
2023-11-24T23:59:48.464Z,101143.41
